Time;durP1;ratioP1;P1;durP2;ratioP2;P2;SDS_P1;SDS_P2;PMS_P1;PMS_P2;Temp;Humidity;BMP_temperature;BMP_pressure;BME280_temperature;BME280_humidity;BME280_pressure;Samples;Min_cycle;Max_cycle;Signal;HPM_P1;HPM_P2
2023/01/20 00:01:04;;;;;;;12.67;11.37;;;1.80;99.90;;;;;;5055082;28;20452;-52
2023/01/20 00:03:31;;;;;;;13.40;11.50;;;1.90;99.90;;;;;;5055068;28;20461;-52
2023/01/20 00:06:00;;;;;;;15.90;11.80;;;1.90;99.90;;;;;;5055136;28;20546;-52
2023/01/20 00:08:27;;;;;;;12.00;10.80;;;1.90;99.90;;;;;;5054724;28;20835;-52
2023/01/20 00:10:54;;;;;;;13.30;9.70;;;2.00;99.90;;;;;;5054732;28;20923;-53
2023/01/20 00:13:21;;;;;;;11.73;10.40;;;2.00;99.90;;;;;;5054516;28;20484;-52
2023/01/20 00:15:48;;;;;;;11.07;9.93;;;2.00;99.90;;;;;;5054849;28;20462;-51
2023/01/20 00:18:16;;;;;;;12.37;9.57;;;2.00;99.90;;;;;;5054830;28;20453;-52
2023/01/20 00:20:43;;;;;;;16.17;10.63;;;2.00;99.90;;;;;;5054700;28;20552;-51
2023/01/20 00:23:11;;;;;;;12.70;11.40;;;2.00;99.90;;;;;;5054755;28;20480;-52
2023/01/20 00:25:38;;;;;;;18.23;11.53;;;2.00;99.90;;;;;;5054712;28;20552;-52
2023/01/20 00:28:05;;;;;;;12.20;10.90;;;2.00;99.90;;;;;;5054721;28;20453;-52
2023/01/20 00:30:33;;;;;;;12.63;11.23;;;2.00;99.90;;;;;;5054315;28;20805;-52
2023/01/20 00:33:00;;;;;;;14.20;11.90;;;2.00;99.90;;;;;;5054375;28;20489;-53
2023/01/20 00:35:27;;;;;;;14.47;11.93;;;1.90;99.90;;;;;;5054557;28;20456;-51
2023/01/20 00:37:54;;;;;;;11.77;10.57;;;1.90;99.90;;;;;;5054390;28;20449;-52
2023/01/20 00:40:22;;;;;;;13.60;11.23;;;1.80;99.90;;;;;;5054241;28;20795;-52
2023/01/20 00:42:49;;;;;;;15.27;10.30;;;1.70;99.90;;;;;;5054225;28;20449;-51
2023/01/20 00:45:17;;;;;;;13.50;11.17;;;1.80;99.90;;;;;;5054374;28;20449;-52
2023/01/20 00:47:44;;;;;;;17.43;12.00;;;1.80;99.90;;;;;;5054190;28;20457;-51
2023/01/20 00:50:11;;;;;;;13.80;11.50;;;1.80;99.90;;;;;;5053894;28;20459;-52
2023/01/20 00:52:38;;;;;;;14.03;11.93;;;1.70;99.90;;;;;;5053541;28;20489;-52
2023/01/20 00:55:06;;;;;;;13.73;11.70;;;1.80;99.90;;;;;;5053930;28;20555;-52
2023/01/20 00:57:35;;;;;;;14.50;11.07;;;1.70;99.90;;;;;;5054086;28;20893;-51
2023/01/20 01:00:02;;;;;;;12.80;10.57;;;1.50;99.90;;;;;;5053765;28;20943;-51
2023/01/20 01:02:29;;;;;;;13.20;11.90;;;1.50;99.90;;;;;;5053761;28;20544;-51
2023/01/20 01:04:56;;;;;;;13.83;11.30;;;1.50;99.90;;;;;;5054160;28;20469;-53
2023/01/20 01:07:23;;;;;;;18.03;12.07;;;1.50;99.90;;;;;;5053592;28;20455;-52
2023/01/20 01:09:51;;;;;;;14.23;12.40;;;1.50;99.90;;;;;;5054026;28;20449;-52
2023/01/20 01:12:18;;;;;;;22.43;13.07;;;1.50;99.90;;;;;;5053557;28;20536;-52
2023/01/20 01:14:47;;;;;;;14.07;12.57;;;1.50;99.90;;;;;;5053438;28;20862;-52
2023/01/20 01:17:14;;;;;;;13.57;11.47;;;1.60;99.90;;;;;;5053895;28;20449;-52
2023/01/20 01:19:41;;;;;;;18.23;12.50;;;1.60;99.90;;;;;;5053759;28;20449;-52
2023/01/20 01:22:08;;;;;;;15.63;12.87;;;1.60;99.90;;;;;;5053594;28;20472;-52
2023/01/20 01:24:35;;;;;;;16.20;12.63;;;1.60;99.90;;;;;;5053624;28;20465;-52
2023/01/20 01:27:03;;;;;;;12.33;10.70;;;1.70;99.90;;;;;;5053537;28;20445;-52
2023/01/20 01:29:30;;;;;;;16.07;11.70;;;1.80;99.90;;;;;;5053368;28;20502;-52
2023/01/20 01:31:59;;;;;;;17.93;13.67;;;1.80;99.90;;;;;;5053717;28;20475;-52
2023/01/20 01:34:26;;;;;;;18.17;12.23;;;1.90;99.90;;;;;;5053109;28;20491;-52
2023/01/20 01:36:53;;;;;;;13.63;11.87;;;2.00;99.90;;;;;;5053541;28;20460;-52
2023/01/20 01:39:21;;;;;;;12.97;11.27;;;2.00;99.90;;;;;;5053456;28;20471;-52
2023/01/20 01:41:48;;;;;;;14.53;11.73;;;2.00;99.90;;;;;;5053525;28;20453;-52
2023/01/20 01:44:15;;;;;;;13.70;11.97;;;2.00;99.90;;;;;;5053145;28;20467;-52
2023/01/20 01:46:43;;;;;;;11.83;10.17;;;2.00;99.90;;;;;;5053329;28;20455;-52
2023/01/20 01:49:17;;;;;;;12.73;11.43;;;2.00;99.90;;;;;;5053085;28;20926;-52
2023/01/20 01:51:48;;;;;;;13.80;12.40;;;1.90;99.90;;;;;;5053467;28;20429;-52
2023/01/20 01:54:18;;;;;;;14.97;13.03;;;2.00;99.90;;;;;;5053455;28;20489;-52
2023/01/20 01:56:48;;;;;;;17.97;12.53;;;2.00;99.90;;;;;;5053039;28;20564;-52
2023/01/20 01:59:17;;;;;;;11.93;10.57;;;2.00;99.90;;;;;;5053344;28;20445;-51
2023/01/20 02:01:49;;;;;;;14.40;11.40;;;2.00;99.90;;;;;;5052974;28;20445;-52
2023/01/20 02:04:20;;;;;;;14.13;11.43;;;2.10;99.90;;;;;;5053199;28;20465;-52
2023/01/20 02:06:51;;;;;;;14.00;12.03;;;2.10;99.90;;;;;;5057059;28;20516;-52
2023/01/20 02:09:19;;;;;;;16.20;12.67;;;2.10;99.90;;;;;;5057408;28;20453;-52
2023/01/20 02:11:49;;;;;;;14.77;12.20;;;2.00;99.90;;;;;;5056787;28;20444;-52
2023/01/20 02:14:18;;;;;;;13.73;12.10;;;2.10;99.90;;;;;;5057285;28;20506;-52
2023/01/20 02:16:57;;;;;;;12.70;11.27;;;2.10;99.90;;;;;;5056667;28;20451;-52
2023/01/20 02:19:49;;;;;;;13.40;12.00;;;2.10;99.90;;;;;;5056966;28;20429;-52
2023/01/20 02:22:25;;;;;;;14.50;11.73;;;2.20;99.90;;;;;;5057078;28;20436;-52
2023/01/20 02:25:29;;;;;;;12.23;11.00;;;2.20;99.90;;;;;;5056610;28;20552;-52
2023/01/20 02:28:23;;;;;;;12.77;11.47;;;2.20;99.90;;;;;;5056949;28;20429;-52
2023/01/20 02:31:29;;;;;;;12.97;11.40;;;2.00;99.90;;;;;;5056847;28;20440;-52
2023/01/20 02:34:03;;;;;;;12.03;10.73;;;1.90;99.90;;;;;;5044271;28;20492;-52
2023/01/20 02:36:34;;;;;;;10.67;9.63;;;1.80;99.90;;;;;;5056474;28;20453;-52
2023/01/20 02:39:06;;;;;;;17.60;11.23;;;1.90;99.90;;;;;;5056509;28;20528;-56
2023/01/20 02:41:40;;;;;;;11.03;9.93;;;1.90;99.90;;;;;;5056702;28;20455;-52
2023/01/20 02:44:14;;;;;;;11.70;10.50;;;1.90;99.90;;;;;;5056459;28;20967;-52
2023/01/20 02:46:49;;;;;;;11.20;9.30;;;1.90;99.90;;;;;;5056480;28;20425;-52
2023/01/20 02:49:23;;;;;;;13.80;10.60;;;1.90;99.90;;;;;;5056581;28;20433;-52
2023/01/20 02:51:56;;;;;;;9.57;7.97;;;1.80;99.90;;;;;;5056675;28;20433;-52
2023/01/20 02:54:27;;;;;;;10.27;8.70;;;1.50;99.90;;;;;;5056488;28;20488;-52
2023/01/20 02:56:56;;;;;;;10.50;8.53;;;1.30;99.90;;;;;;5056125;28;20571;-52
2023/01/20 02:59:26;;;;;;;11.03;8.37;;;1.30;99.90;;;;;;5056344;28;20449;-52
2023/01/20 03:01:57;;;;;;;10.80;9.50;;;1.20;99.90;;;;;;5056067;28;20455;-51
2023/01/20 03:04:30;;;;;;;12.20;9.07;;;1.30;99.90;;;;;;5056163;28;20468;-51
2023/01/20 03:06:59;;;;;;;10.93;9.60;;;1.40;99.90;;;;;;5055954;28;20433;-52
2023/01/20 03:09:30;;;;;;;12.93;9.73;;;1.40;99.90;;;;;;5056098;28;20445;-52
2023/01/20 03:12:01;;;;;;;10.47;9.37;;;1.40;99.90;;;;;;5055901;28;20537;-52
2023/01/20 03:14:28;;;;;;;9.77;8.87;;;1.60;99.90;;;;;;5055611;28;20485;-52
2023/01/20 03:16:56;;;;;;;10.57;9.57;;;1.80;99.90;;;;;;5055105;28;20453;-51
2023/01/20 03:19:23;;;;;;;10.17;9.17;;;1.80;99.90;;;;;;5055615;28;20449;-52
2023/01/20 03:21:52;;;;;;;10.97;9.53;;;1.80;99.90;;;;;;5055930;28;20471;-52
2023/01/20 03:24:19;;;;;;;10.70;9.70;;;1.80;99.90;;;;;;5055966;28;20752;-52
2023/01/20 03:26:47;;;;;;;8.63;7.83;;;1.70;99.90;;;;;;5055600;28;20441;-52
2023/01/20 03:29:14;;;;;;;10.90;9.33;;;1.70;99.90;;;;;;5055388;28;20935;-51
2023/01/20 03:31:46;;;;;;;12.20;10.07;;;1.30;99.90;;;;;;5055768;28;20543;-52
2023/01/20 03:34:17;;;;;;;11.47;10.37;;;1.20;99.90;;;;;;5055305;28;20487;-52
2023/01/20 03:36:45;;;;;;;9.03;8.10;;;1.30;99.90;;;;;;5055425;28;20436;-51
2023/01/20 03:39:14;;;;;;;14.77;9.63;;;1.40;99.90;;;;;;5055522;28;20461;-51
2023/01/20 03:41:52;;;;;;;8.80;7.97;;;1.30;99.90;;;;;;5055595;28;20441;-52
2023/01/20 03:44:26;;;;;;;10.10;8.53;;;1.20;99.90;;;;;;5055472;28;20464;-52
2023/01/20 03:46:58;;;;;;;11.33;10.20;;;1.30;99.90;;;;;;5055468;28;20438;-51
2023/01/20 03:49:29;;;;;;;10.67;8.87;;;1.40;99.90;;;;;;5055581;28;20436;-51
2023/01/20 03:52:02;;;;;;;9.10;8.23;;;1.40;99.90;;;;;;5055140;28;20799;-51
2023/01/20 03:54:38;;;;;;;11.97;9.50;;;1.30;99.90;;;;;;5055445;28;20838;-52
2023/01/20 03:57:11;;;;;;;9.57;8.57;;;1.40;99.90;;;;;;5055040;28;20421;-51
2023/01/20 03:59:42;;;;;;;10.97;9.47;;;1.50;99.90;;;;;;5054970;28;20422;-51
2023/01/20 04:02:11;;;;;;;10.00;8.47;;;1.60;99.90;;;;;;5054940;28;20464;-51
2023/01/20 04:04:41;;;;;;;9.43;8.60;;;1.60;99.90;;;;;;5055020;28;20548;-52
2023/01/20 04:07:14;;;;;;;12.07;9.50;;;1.60;99.90;;;;;;5054792;28;20452;-51
2023/01/20 04:09:47;;;;;;;12.47;9.23;;;1.60;99.90;;;;;;5055230;28;20781;-52
2023/01/20 04:12:14;;;;;;;11.77;9.67;;;1.50;99.90;;;;;;5054658;28;20432;-52
2023/01/20 04:14:41;;;;;;;11.03;9.83;;;1.30;99.90;;;;;;5054756;28;20489;-51
2023/01/20 04:17:09;;;;;;;10.00;8.90;;;1.20;99.90;;;;;;5054940;28;20452;-52
2023/01/20 04:19:36;;;;;;;12.37;9.17;;;1.20;99.90;;;;;;5054421;28;20449;-52
2023/01/20 04:22:08;;;;;;;8.77;7.97;;;1.00;99.90;;;;;;5054950;28;20456;-51
2023/01/20 04:24:41;;;;;;;10.43;8.73;;;1.00;99.90;;;;;;5054344;28;20493;-51
2023/01/20 04:27:09;;;;;;;9.13;8.00;;;1.00;99.90;;;;;;5053871;28;20430;-52
2023/01/20 04:29:36;;;;;;;8.47;7.67;;;1.00;99.90;;;;;;5054563;28;20445;-51
2023/01/20 04:32:04;;;;;;;10.53;8.10;;;1.00;99.90;;;;;;5054580;28;20447;-51
2023/01/20 04:34:31;;;;;;;9.63;8.57;;;1.00;99.90;;;;;;5054349;28;20841;-52
2023/01/20 04:36:58;;;;;;;11.83;8.53;;;1.00;99.90;;;;;;5054182;28;20452;-51
2023/01/20 04:39:25;;;;;;;10.27;8.30;;;1.00;99.90;;;;;;5054061;28;20806;-51
2023/01/20 04:41:52;;;;;;;9.73;8.63;;;1.10;99.90;;;;;;5054519;28;20803;-51
2023/01/20 04:44:20;;;;;;;8.43;7.60;;;1.00;99.90;;;;;;5054509;28;20461;-53
2023/01/20 04:46:48;;;;;;;11.03;8.17;;;1.00;99.90;;;;;;5054411;28;20446;-51
2023/01/20 04:49:15;;;;;;;10.10;7.80;;;1.00;99.90;;;;;;5054074;28;20481;-51
2023/01/20 04:51:42;;;;;;;9.70;7.17;;;1.00;99.90;;;;;;5054364;28;20448;-51
2023/01/20 04:54:09;;;;;;;9.27;8.37;;;1.00;99.90;;;;;;5054265;28;20511;-51
2023/01/20 04:56:36;;;;;;;9.30;8.37;;;1.00;99.90;;;;;;5053863;28;20560;-51
2023/01/20 04:59:04;;;;;;;9.33;7.93;;;1.00;99.90;;;;;;5054106;28;20451;-53
2023/01/20 05:01:33;;;;;;;10.03;7.87;;;1.00;99.90;;;;;;5053723;28;20956;-51
2023/01/20 05:04:00;;;;;;;9.47;7.33;;;1.00;99.90;;;;;;5053953;28;20471;-53
2023/01/20 05:06:27;;;;;;;9.13;8.13;;;1.10;99.90;;;;;;5053987;28;20556;-53
2023/01/20 05:08:54;;;;;;;9.40;7.60;;;1.20;99.90;;;;;;5054125;28;20808;-52
2023/01/20 05:11:21;;;;;;;9.37;7.43;;;1.40;99.90;;;;;;5053545;28;20448;-53
2023/01/20 05:13:48;;;;;;;10.27;8.97;;;1.40;99.90;;;;;;5053751;28;20465;-53
2023/01/20 05:16:22;;;;;;;9.50;7.50;;;1.50;99.90;;;;;;5053748;28;20562;-53
2023/01/20 05:18:56;;;;;;;10.60;7.20;;;1.40;99.90;;;;;;5053455;28;20430;-52
2023/01/20 05:21:23;;;;;;;8.87;6.70;;;1.30;99.90;;;;;;5053447;28;20453;-53
2023/01/20 05:23:50;;;;;;;15.07;7.10;;;1.30;99.90;;;;;;5054045;28;20473;-52
2023/01/20 05:26:17;;;;;;;7.40;6.70;;;1.30;99.90;;;;;;5053615;28;20453;-53
2023/01/20 05:28:45;;;;;;;9.60;7.97;;;1.30;99.90;;;;;;5053653;28;20543;-50
2023/01/20 05:31:12;;;;;;;10.67;8.13;;;1.30;99.90;;;;;;5053201;28;20454;-52
2023/01/20 05:33:39;;;;;;;10.70;8.20;;;1.40;99.90;;;;;;5053211;28;20461;-53
2023/01/20 05:36:09;;;;;;;7.27;6.43;;;1.50;99.90;;;;;;5053251;28;20488;-53
2023/01/20 05:38:36;;;;;;;13.10;9.47;;;1.60;99.90;;;;;;5053297;28;20449;-53
2023/01/20 05:41:06;;;;;;;10.20;8.33;;;1.50;99.90;;;;;;5053427;28;20524;-53
2023/01/20 05:43:33;;;;;;;9.20;7.40;;;1.50;99.90;;;;;;5053062;28;20475;-53
2023/01/20 05:46:00;;;;;;;12.60;8.60;;;1.40;99.90;;;;;;5053526;28;20807;-53
2023/01/20 05:48:28;;;;;;;10.83;9.13;;;1.40;99.90;;;;;;5053462;28;20449;-51
2023/01/20 05:50:55;;;;;;;9.97;8.10;;;1.50;99.90;;;;;;5053162;28;20468;-53
2023/01/20 05:53:24;;;;;;;7.63;6.83;;;1.60;99.90;;;;;;5053400;28;20476;-53
2023/01/20 05:55:59;;;;;;;11.07;9.00;;;1.60;99.90;;;;;;5052727;28;20485;-51
2023/01/20 05:58:26;;;;;;;11.63;10.47;;;1.40;99.90;;;;;;5053088;28;20896;-51
2023/01/20 06:00:53;;;;;;;11.43;8.03;;;1.20;99.90;;;;;;5052835;28;20459;-53
2023/01/20 06:03:20;;;;;;;13.90;9.50;;;1.20;99.90;;;;;;5053166;28;20553;-53
2023/01/20 06:05:48;;;;;;;9.07;8.13;;;1.00;99.90;;;;;;5053119;28;20449;-51
2023/01/20 06:08:16;;;;;;;8.80;7.90;;;1.00;99.90;;;;;;5053198;28;20456;-51
2023/01/20 06:10:44;;;;;;;10.73;8.57;;;1.10;99.90;;;;;;5052972;28;20437;-51
2023/01/20 06:13:12;;;;;;;8.30;7.40;;;1.00;99.90;;;;;;5052585;28;20470;-53
2023/01/20 06:15:39;;;;;;;10.70;9.33;;;1.00;99.90;;;;;;5052783;28;20531;-53
2023/01/20 06:18:11;;;;;;;10.80;9.70;;;1.00;99.90;;;;;;5052632;28;20445;-53
2023/01/20 06:20:38;;;;;;;9.50;8.50;;;1.10;99.90;;;;;;5052761;28;20465;-53
2023/01/20 06:23:06;;;;;;;11.07;8.60;;;1.10;99.90;;;;;;5052947;28;20472;-53
2023/01/20 06:25:33;;;;;;;9.03;8.23;;;1.10;99.90;;;;;;5053061;28;20806;-53
2023/01/20 06:28:01;;;;;;;8.90;8.00;;;1.10;99.90;;;;;;5052899;28;20451;-53
2023/01/20 06:30:29;;;;;;;13.43;8.60;;;1.10;99.90;;;;;;5052308;28;20481;-53
2023/01/20 06:32:56;;;;;;;10.23;8.67;;;1.10;99.90;;;;;;5052423;28;20501;-53
2023/01/20 06:35:23;;;;;;;12.20;10.13;;;1.00;99.90;;;;;;5052155;28;20476;-53
2023/01/20 06:37:51;;;;;;;10.07;9.10;;;1.20;99.90;;;;;;5052548;28;20459;-51
2023/01/20 06:40:18;;;;;;;12.67;9.23;;;1.10;99.90;;;;;;5052637;28;20536;-53
2023/01/20 06:42:45;;;;;;;10.87;9.60;;;1.10;99.90;;;;;;5052884;28;20448;-52
2023/01/20 06:45:15;;;;;;;10.33;9.33;;;1.10;99.90;;;;;;5052071;28;20979;-51
2023/01/20 06:47:42;;;;;;;10.03;8.97;;;1.10;99.90;;;;;;5052586;28;20453;-52
2023/01/20 06:50:10;;;;;;;9.33;8.13;;;1.10;99.90;;;;;;5052315;28;21002;-52
2023/01/20 06:52:37;;;;;;;12.53;9.97;;;1.00;99.90;;;;;;5055940;28;20457;-52
2023/01/20 06:55:05;;;;;;;10.50;9.47;;;1.00;99.90;;;;;;5056079;28;20492;-52
2023/01/20 06:57:50;;;;;;;14.30;9.50;;;0.90;99.90;;;;;;5033341;28;20967;-50
2023/01/20 07:00:19;;;;;;;10.83;9.70;;;0.90;99.90;;;;;;5055529;28;20441;-54
2023/01/20 07:02:49;;;;;;;11.60;8.70;;;0.90;99.90;;;;;;5055955;28;20473;-52
2023/01/20 07:05:16;;;;;;;11.10;10.00;;;1.00;99.90;;;;;;5055677;28;20962;-51
2023/01/20 07:07:44;;;;;;;10.47;8.10;;;1.10;99.90;;;;;;5056290;28;20540;-54
2023/01/20 07:10:12;;;;;;;11.10;9.93;;;1.10;99.90;;;;;;5055675;28;20840;-54
2023/01/20 07:12:39;;;;;;;14.23;10.90;;;1.20;99.90;;;;;;5055846;28;20449;-51
2023/01/20 07:15:07;;;;;;;11.33;10.13;;;1.20;99.90;;;;;;5055635;28;20841;-52
2023/01/20 07:17:36;;;;;;;14.90;10.93;;;1.10;99.90;;;;;;5055838;28;20519;-51
2023/01/20 07:20:03;;;;;;;14.03;11.70;;;1.20;99.90;;;;;;5056046;28;20523;-51
2023/01/20 07:22:30;;;;;;;13.13;9.23;;;1.00;99.90;;;;;;5055389;28;20453;-51
2023/01/20 07:24:58;;;;;;;10.33;8.43;;;1.00;99.90;;;;;;5055201;28;20457;-51
2023/01/20 07:27:25;;;;;;;10.10;9.10;;;1.10;99.90;;;;;;5055195;28;20529;-51
2023/01/20 07:29:52;;;;;;;11.60;9.00;;;1.20;99.90;;;;;;5055532;28;20451;-51
2023/01/20 07:32:19;;;;;;;9.67;8.77;;;1.20;99.90;;;;;;5055203;28;20461;-51
2023/01/20 07:34:48;;;;;;;10.33;8.90;;;1.20;99.90;;;;;;5055182;28;20485;-51
2023/01/20 07:37:15;;;;;;;11.40;9.50;;;1.20;99.90;;;;;;5055509;28;20441;-52
2023/01/20 07:39:42;;;;;;;10.70;8.97;;;1.30;99.90;;;;;;5055147;28;20804;-51
2023/01/20 07:42:09;;;;;;;10.07;7.70;;;1.40;99.90;;;;;;5055181;28;20453;-51
2023/01/20 07:44:36;;;;;;;11.07;8.27;;;1.40;99.90;;;;;;5054976;28;20469;-51
2023/01/20 07:47:03;;;;;;;9.10;8.20;;;1.40;99.90;;;;;;5055228;28;20455;-51
2023/01/20 07:49:30;;;;;;;12.57;9.67;;;1.40;99.90;;;;;;5054943;28;20446;-51
2023/01/20 07:51:59;;;;;;;17.87;8.27;;;1.60;99.90;;;;;;5054911;28;20459;-51
2023/01/20 07:54:27;;;;;;;10.73;9.60;;;1.60;99.90;;;;;;5055270;28;20481;-51
2023/01/20 07:56:54;;;;;;;13.30;9.10;;;1.40;99.90;;;;;;5053396;28;20500;-51
2023/01/20 07:59:21;;;;;;;11.00;8.80;;;1.40;99.90;;;;;;5055054;28;20456;-52
2023/01/20 08:01:48;;;;;;;13.43;8.97;;;1.30;99.90;;;;;;5054585;28;20453;-51
2023/01/20 08:04:16;;;;;;;15.83;9.87;;;1.50;99.90;;;;;;5054441;28;20834;-52
2023/01/20 08:06:43;;;;;;;13.50;10.10;;;1.50;99.90;;;;;;5054444;28;20540;-52
2023/01/20 08:09:13;;;;;;;12.13;8.43;;;1.50;99.90;;;;;;5054893;28;20541;-51
2023/01/20 08:11:40;;;;;;;10.20;9.10;;;1.50;99.90;;;;;;5054804;28;20484;-52
2023/01/20 08:14:08;;;;;;;8.63;7.43;;;1.50;99.90;;;;;;5054625;28;20479;-52
2023/01/20 08:16:35;;;;;;;10.90;9.17;;;1.50;99.90;;;;;;5054511;28;20499;-51
2023/01/20 08:19:02;;;;;;;11.47;8.87;;;1.60;99.90;;;;;;5054657;28;20544;-51
2023/01/20 08:21:30;;;;;;;12.03;9.10;;;1.70;99.90;;;;;;5054592;28;20450;-51
2023/01/20 08:23:59;;;;;;;12.27;9.33;;;1.70;99.90;;;;;;5053868;28;21070;-51
2023/01/20 08:26:28;;;;;;;8.73;8.03;;;1.60;99.90;;;;;;5054376;28;20441;-51
2023/01/20 08:28:56;;;;;;;10.73;9.63;;;1.60;99.90;;;;;;5054159;28;20540;-51
2023/01/20 08:31:24;;;;;;;12.17;9.97;;;1.80;99.90;;;;;;5054231;28;20485;-51
2023/01/20 08:33:54;;;;;;;12.67;10.17;;;1.90;99.90;;;;;;5053899;28;20472;-51
2023/01/20 08:36:23;;;;;;;9.67;8.60;;;1.90;99.90;;;;;;5054136;28;20477;-52
2023/01/20 08:38:50;;;;;;;12.00;9.47;;;1.80;99.90;;;;;;5054041;28;20445;-52
2023/01/20 08:41:20;;;;;;;10.07;9.07;;;1.80;99.90;;;;;;5054146;28;20536;-52
2023/01/20 08:43:48;;;;;;;11.93;8.90;;;1.90;99.90;;;;;;5053950;28;20560;-52
2023/01/20 08:46:17;;;;;;;11.73;9.00;;;1.90;99.90;;;;;;5053758;28;21014;-51
2023/01/20 08:48:44;;;;;;;15.13;9.80;;;1.90;99.90;;;;;;5054114;28;20449;-52
2023/01/20 08:51:15;;;;;;;12.33;9.30;;;2.00;99.90;;;;;;5054082;28;20469;-52
2023/01/20 08:53:42;;;;;;;12.50;9.60;;;2.10;99.90;;;;;;5054310;28;21030;-52
2023/01/20 08:56:11;;;;;;;13.00;9.60;;;2.10;99.90;;;;;;5053261;28;20538;-52
2023/01/20 08:58:38;;;;;;;9.13;8.23;;;2.10;99.90;;;;;;5053599;28;20452;-52
2023/01/20 09:01:10;;;;;;;9.23;8.33;;;2.10;99.90;;;;;;5053646;28;20446;-51
2023/01/20 09:03:38;;;;;;;12.40;10.30;;;2.30;99.90;;;;;;5053876;28;20475;-51
2023/01/20 09:06:06;;;;;;;9.17;8.17;;;2.40;99.90;;;;;;5053945;28;20491;-51
2023/01/20 09:08:34;;;;;;;14.73;10.20;;;2.50;99.90;;;;;;5053520;28;20445;-52
2023/01/20 09:11:05;;;;;;;15.10;11.30;;;2.50;99.90;;;;;;5053656;28;20449;-51
2023/01/20 09:13:32;;;;;;;10.97;9.40;;;2.30;99.90;;;;;;5052986;28;20831;-50
2023/01/20 09:15:59;;;;;;;14.50;9.73;;;2.20;99.90;;;;;;5051854;28;20496;-50
2023/01/20 09:18:28;;;;;;;11.60;9.20;;;2.20;99.90;;;;;;5053425;28;20461;-49
2023/01/20 09:20:57;;;;;;;13.27;9.17;;;2.10;99.90;;;;;;5053637;28;20449;-50
2023/01/20 09:23:24;;;;;;;10.77;9.40;;;2.00;99.90;;;;;;5053470;28;20480;-50
2023/01/20 09:25:51;;;;;;;14.17;9.47;;;2.30;99.90;;;;;;5053277;28;20450;-50
2023/01/20 09:28:18;;;;;;;14.07;9.70;;;2.40;99.90;;;;;;5053552;28;20457;-50
2023/01/20 09:30:46;;;;;;;15.50;10.30;;;2.50;99.90;;;;;;5053404;28;20450;-50
2023/01/20 09:33:13;;;;;;;10.50;9.23;;;2.50;99.90;;;;;;5053246;28;20572;-50
2023/01/20 09:35:42;;;;;;;11.40;9.60;;;2.60;99.90;;;;;;5053263;28;20477;-49
2023/01/20 09:44:03;;;;;;;10.97;8.53;;;2.70;99.90;;;;;;5052957;28;20448;-50
2023/01/20 09:47:18;;;;;;;11.73;8.10;;;2.70;99.90;;;;;;5053255;28;20457;-49
2023/01/20 09:55:23;;;;;;;10.90;8.00;;;2.40;99.90;;;;;;5052891;28;21009;-49
2023/01/20 09:57:58;;;;;;;8.33;7.07;;;2.70;99.90;;;;;;5052724;28;20439;-49
2023/01/20 10:00:30;;;;;;;9.13;8.23;;;2.80;99.90;;;;;;5053000;28;20508;-50
2023/01/20 10:03:05;;;;;;;8.17;7.27;;;2.80;99.90;;;;;;5052797;28;20818;-50
2023/01/20 10:05:37;;;;;;;10.63;9.00;;;2.80;99.90;;;;;;5052712;28;20431;-50
2023/01/20 10:08:10;;;;;;;12.23;8.83;;;2.60;99.90;;;;;;5052969;28;20472;-50
2023/01/20 10:10:45;;;;;;;10.67;9.57;;;2.60;99.90;;;;;;5053132;28;20434;-50
2023/01/20 10:13:18;;;;;;;9.00;8.17;;;2.50;99.90;;;;;;5053056;28;20465;-50
2023/01/20 10:15:50;;;;;;;9.80;8.50;;;2.50;99.90;;;;;;5052703;28;20963;-50
2023/01/20 10:18:22;;;;;;;9.27;8.37;;;2.60;99.90;;;;;;5052721;28;20788;-50
2023/01/20 10:20:53;;;;;;;11.00;8.83;;;2.70;99.90;;;;;;5053205;28;20456;-50
2023/01/20 10:23:29;;;;;;;7.63;6.77;;;2.60;99.90;;;;;;5052529;28;20483;-54
2023/01/20 10:26:04;;;;;;;12.00;8.50;;;2.50;99.90;;;;;;5053871;28;20431;-50
2023/01/20 10:28:36;;;;;;;9.40;8.07;;;2.50;99.90;;;;;;5056820;28;20451;-50
2023/01/20 10:31:05;;;;;;;8.80;7.87;;;2.50;99.90;;;;;;5056715;28;20475;-50
2023/01/20 10:33:37;;;;;;;11.97;8.30;;;2.60;99.90;;;;;;5056407;28;21045;-51
2023/01/20 10:36:04;;;;;;;12.30;7.57;;;2.80;99.90;;;;;;5056556;28;20469;-50
2023/01/20 10:38:40;;;;;;;10.40;8.00;;;2.90;99.90;;;;;;5056515;28;20991;-50
2023/01/20 10:41:15;;;;;;;10.23;6.93;;;3.10;99.90;;;;;;5056590;28;20487;-50
2023/01/20 10:43:42;;;;;;;11.23;7.10;;;3.30;99.90;;;;;;5056357;28;20519;-50
2023/01/20 10:46:31;;;;;;;8.83;6.47;;;3.50;99.90;;;;;;5056279;28;20445;-50
2023/01/20 10:49:28;;;;;;;8.73;6.40;;;3.80;99.90;;;;;;5056376;28;20554;-50
2023/01/20 10:52:11;;;;;;;8.10;5.83;;;4.30;99.90;;;;;;5056027;28;20463;-50
2023/01/20 10:54:46;;;;;;;6.43;5.70;;;5.50;99.90;;;;;;5056347;28;20831;-50
2023/01/20 10:57:15;;;;;;;6.73;6.13;;;5.90;99.90;;;;;;5016174;28;20835;-51
2023/01/20 10:59:45;;;;;;;9.07;6.30;;;6.30;99.90;;;;;;5016604;28;20520;-51
2023/01/20 11:02:19;;;;;;;7.97;6.00;;;7.10;99.90;;;;;;5016032;28;20501;-51
2023/01/20 11:04:52;;;;;;;9.03;6.10;;;8.00;99.90;;;;;;5016476;28;20520;-51
2023/01/20 11:07:19;;;;;;;6.90;5.73;;;8.70;99.90;;;;;;5016399;28;20428;-51
2023/01/20 11:09:49;;;;;;;6.27;5.67;;;9.60;99.90;;;;;;5016366;28;20443;-51
2023/01/20 11:12:18;;;;;;;7.17;6.47;;;9.50;99.90;;;;;;5015784;28;20457;-50
2023/01/20 11:14:46;;;;;;;7.73;6.07;;;9.40;99.90;;;;;;5015774;28;20520;-51
2023/01/20 11:17:15;;;;;;;6.33;5.43;;;8.40;99.90;;;;;;5015605;28;20478;-49
2023/01/20 11:19:51;;;;;;;6.67;6.07;;;8.80;99.90;;;;;;5016130;28;20482;-49
2023/01/20 11:22:24;;;;;;;6.73;6.13;;;8.10;99.90;;;;;;5015658;28;20439;-51
2023/01/20 11:24:57;;;;;;;7.00;5.93;;;8.40;99.90;;;;;;5015443;28;20996;-51
2023/01/20 11:27:28;;;;;;;7.60;6.80;;;7.90;99.90;;;;;;5015858;28;20428;-50
2023/01/20 11:30:00;;;;;;;7.70;6.83;;;7.10;99.90;;;;;;5015835;28;20463;-50
2023/01/20 11:32:32;;;;;;;7.00;6.40;;;6.00;99.90;;;;;;5016015;28;20439;-50
2023/01/20 11:35:00;;;;;;;6.80;6.20;;;5.50;99.90;;;;;;5015596;28;20478;-50
2023/01/20 11:37:36;;;;;;;8.00;7.23;;;5.10;99.90;;;;;;5015339;28;20508;-50
2023/01/20 11:40:20;;;;;;;4.87;4.47;;;4.60;99.90;;;;;;5015858;28;20510;-50
2023/01/20 11:42:48;;;;;;;10.10;5.47;;;4.20;99.90;;;;;;5015571;28;20433;-50
2023/01/20 11:45:31;;;;;;;5.07;4.60;;;3.90;99.90;;;;;;5015664;28;20809;-50
2023/01/20 11:48:19;;;;;;;4.50;3.83;;;3.90;99.90;;;;;;5015642;28;20431;-49
2023/01/20 11:50:48;;;;;;;4.80;4.20;;;3.80;99.90;;;;;;5015576;28;20439;-50
2023/01/20 11:53:22;;;;;;;5.90;5.10;;;3.60;99.90;;;;;;5015149;28;20545;-51
2023/01/20 11:55:53;;;;;;;5.90;5.30;;;3.60;99.90;;;;;;5034219;28;20567;-49
2023/01/20 11:58:23;;;;;;;6.10;5.23;;;3.60;99.90;;;;;;5051748;28;20445;-47
2023/01/20 12:00:52;;;;;;;7.43;5.43;;;3.80;99.90;;;;;;5035842;28;20460;-47
2023/01/20 12:04:01;;;;;;;6.50;5.30;;;4.50;99.90;;;;;;5034619;28;20476;-47
2023/01/20 12:06:32;;;;;;;7.43;5.20;;;5.80;99.90;;;;;;5035831;28;20443;-52
2023/01/20 12:09:03;;;;;;;4.87;4.20;;;6.80;99.90;;;;;;5043884;28;20819;-51
2023/01/20 12:11:37;;;;;;;21.33;5.70;;;6.30;99.90;;;;;;5040732;28;20446;-50
2023/01/20 12:14:21;;;;;;;6.30;5.03;;;5.50;99.90;;;;;;5049717;28;21038;-51
2023/01/20 12:16:57;;;;;;;7.43;4.63;;;4.80;99.90;;;;;;5054461;28;20465;-50
2023/01/20 12:19:32;;;;;;;5.03;4.53;;;4.70;99.90;;;;;;5054505;28;20788;-51
2023/01/20 12:22:05;;;;;;;4.27;3.87;;;4.60;99.90;;;;;;5054533;28;20453;-51
2023/01/20 12:27:28;;;;;;;6.13;4.63;;;4.60;99.90;;;;;;5053460;28;20943;-50
2023/01/20 12:29:59;;;;;;;6.13;5.37;;;4.90;99.90;;;;;;5053921;28;20487;-51
2023/01/20 12:32:28;;;;;;;6.17;4.37;;;4.70;99.90;;;;;;5053368;28;20521;-50
2023/01/20 12:34:55;;;;;;;4.73;4.40;;;4.40;99.90;;;;;;5053137;28;20543;-50
2023/01/20 12:37:29;;;;;;;11.60;4.87;;;4.30;99.90;;;;;;5051442;28;20481;-50
2023/01/20 12:40:22;;;;;;;5.97;5.47;;;4.30;99.90;;;;;;5053863;28;20429;-50
2023/01/20 12:43:25;;;;;;;4.80;4.30;;;4.30;99.90;;;;;;5053650;28;20448;-50
2023/01/20 12:46:14;;;;;;;5.93;4.50;;;4.20;99.90;;;;;;5053810;28;20440;-54
2023/01/20 12:48:52;;;;;;;5.03;4.60;;;4.10;99.90;;;;;;5039931;28;20447;-53
2023/01/20 12:51:44;;;;;;;5.17;3.90;;;4.00;99.90;;;;;;5041229;28;20460;-52
2023/01/20 12:54:39;;;;;;;6.57;5.53;;;3.90;99.90;;;;;;5040032;28;20897;-52
2023/01/20 12:57:21;;;;;;;6.63;5.93;;;3.90;99.90;;;;;;5034926;28;21042;-54
2023/01/20 13:00:00;;;;;;;7.63;6.70;;;3.70;99.90;;;;;;5040598;28;20560;-50
2023/01/20 13:02:52;;;;;;;11.43;7.20;;;3.80;99.90;;;;;;5042400;28;20471;-49
2023/01/20 13:05:40;;;;;;;11.67;7.80;;;4.00;99.90;;;;;;5037788;28;20463;-48
2023/01/20 13:08:13;;;;;;;8.17;7.10;;;4.10;99.90;;;;;;5037604;28;20454;-49
2023/01/20 13:11:01;;;;;;;8.73;6.87;;;4.00;99.90;;;;;;5039148;28;20817;-48
2023/01/20 13:13:39;;;;;;;7.00;6.40;;;3.70;99.90;;;;;;5039590;28;20480;-56
2023/01/20 13:16:15;;;;;;;8.47;6.77;;;3.70;99.90;;;;;;5042608;28;20943;-57
2023/01/20 13:19:02;;;;;;;7.83;5.60;;;3.70;99.90;;;;;;5038980;28;20544;-53
2023/01/20 13:21:30;;;;;;;7.20;6.10;;;3.80;99.90;;;;;;5038028;28;20458;-51